Spring Creek, Nebraska
Current Conditions -  °F | °C
As of 7:53 PM on Friday 28 Nov 2014 (Local Time) from KBBW Reporting Station
Clear Clear  
Wind Chill: 37°   Ceiling: Unl
Heat Index: 41°   Visibility: 10mi
Dew Point: 18°   Wind: 6mph
Humidity: 40%   Direction: 270°W
Pressure: 29.64"   Gusts: NA
Location:  41.4141°N, 99.3925°W
Report Text: KBBW 290153Z AUTO 27005KT 10SM CLR 05/M08 A2964 RMK AO2 SLP046 T00501078
Loading
Personal Weather Stations






























Interactive Weather Map New forecast layout! Learn more

10-Day Weather Forecast

Advertisements
Track Severe Weather on mobile